Weedsport, New York
Current Conditions -  °F | °C
As of 1:54 PM on Friday 21 Nov 2014 (Local Time) from KFZY Reporting Station
Broken Clouds Broken Clouds  
Wind Chill: 16°   Ceiling: 3900
Heat Index: 27°   Visibility: 10mi
Dew Point: 13°   Wind: 13mph
Humidity: 56%   Direction: 300°WNW
Pressure: 30.35"   Gusts: 21mph
Location:  43.05°N, 76.56°W
Report Text: KFZY 211854Z AUTO 30011G18KT 10SM BKN039 BKN045 M03/M11 A3035 RMK AO2 SLP284 T10281106
Loading
Personal Weather Stations






























Interactive Weather Map New forecast layout! Learn more

10-Day Weather Forecast

Advertisements
Track Severe Weather on mobile